Time;durP1;ratioP1;P1;durP2;ratioP2;P2;SDS_P1;SDS_P2;PMS_P1;PMS_P2;Temp;Humidity;BMP_temperature;BMP_pressure;BME280_temperature;BME280_humidity;BME280_pressure;Samples;Min_cycle;Max_cycle;Signal;HPM_P1;HPM_P2
2024/02/11 00:00:27;;;;;;;13.63;12.00;;;11.10;99.90;;;;;;4994616;28;20037;-83
2024/02/11 00:02:53;;;;;;;13.77;12.38;;;11.10;99.90;;;;;;4993406;28;20027;-83
2024/02/11 00:05:22;;;;;;;13.55;12.18;;;11.00;99.90;;;;;;4960483;28;20088;-83
2024/02/11 00:07:48;;;;;;;12.90;11.50;;;11.10;99.90;;;;;;4976665;28;20506;-83
2024/02/11 00:10:14;;;;;;;13.73;11.32;;;11.00;99.90;;;;;;4977117;28;20037;-83
2024/02/11 00:12:40;;;;;;;12.48;11.27;;;11.00;99.90;;;;;;4993193;28;20034;-82
2024/02/11 00:15:08;;;;;;;12.32;11.13;;;11.10;99.90;;;;;;4977081;28;20049;-83
2024/02/11 00:17:36;;;;;;;11.25;10.15;;;11.00;99.90;;;;;;4976987;28;20068;-83
2024/02/11 00:20:05;;;;;;;11.38;10.27;;;11.00;99.90;;;;;;4976831;28;20479;-84
2024/02/11 00:22:32;;;;;;;11.68;10.48;;;11.00;99.90;;;;;;4976945;28;20045;-83
2024/02/11 00:25:07;;;;;;;11.52;10.32;;;11.00;99.90;;;;;;4976913;28;20031;-83
2024/02/11 00:27:32;;;;;;;12.35;10.82;;;11.10;99.90;;;;;;4976743;28;20133;-83
2024/02/11 00:29:58;;;;;;;13.10;11.80;;;11.00;99.90;;;;;;4976612;28;20066;-83
2024/02/11 00:32:24;;;;;;;12.48;11.05;;;11.00;99.90;;;;;;4992997;28;20034;-83
2024/02/11 00:34:50;;;;;;;13.20;11.85;;;11.00;99.90;;;;;;4976813;28;20470;-84
2024/02/11 00:37:15;;;;;;;12.73;11.43;;;11.00;99.90;;;;;;4994417;28;20030;-83
2024/02/11 00:39:41;;;;;;;12.77;11.20;;;11.00;99.90;;;;;;4976950;28;20493;-84
2024/02/11 00:42:07;;;;;;;11.05;10.00;;;11.00;99.90;;;;;;4993281;28;20039;-83
2024/02/11 00:44:34;;;;;;;13.50;12.20;;;11.00;99.90;;;;;;4979827;28;20431;-83
2024/02/11 00:47:01;;;;;;;13.32;11.93;;;11.00;99.90;;;;;;4980838;28;20434;-84
2024/02/11 00:49:34;;;;;;;12.70;10.93;;;11.00;99.90;;;;;;4980627;28;20065;-83
2024/02/11 00:51:59;;;;;;;12.85;11.55;;;11.00;99.90;;;;;;4997393;28;20528;-84
2024/02/11 00:54:25;;;;;;;12.88;11.63;;;11.00;99.90;;;;;;4964675;28;20038;-83
2024/02/11 00:56:54;;;;;;;12.90;11.70;;;11.00;99.90;;;;;;4980781;28;20030;-84
2024/02/11 00:59:20;;;;;;;12.35;11.05;;;11.00;99.90;;;;;;4964783;28;20042;-84
2024/02/11 01:01:45;;;;;;;13.50;12.10;;;11.00;99.90;;;;;;4997693;28;20038;-83
2024/02/11 01:04:11;;;;;;;13.32;12.00;;;11.10;99.90;;;;;;4964125;28;20462;-83
2024/02/11 01:06:40;;;;;;;14.68;13.13;;;11.00;99.90;;;;;;4980208;28;20490;-88
2024/02/11 01:09:06;;;;;;;15.05;13.50;;;11.00;99.90;;;;;;4981503;28;20034;-85
2024/02/11 01:11:31;;;;;;;14.70;13.20;;;10.90;99.90;;;;;;5001444;28;20019;-83
2024/02/11 01:13:57;;;;;;;13.48;12.18;;;10.90;99.90;;;;;;5005053;28;20022;-85
2024/02/11 01:16:23;;;;;;;14.10;12.25;;;10.90;99.90;;;;;;5004510;28;20011;-82
2024/02/11 01:18:49;;;;;;;13.52;12.13;;;10.80;99.90;;;;;;5003596;28;20045;-84
2024/02/11 01:21:14;;;;;;;13.43;12.13;;;10.90;99.90;;;;;;4982327;28;20458;-83
2024/02/11 01:23:40;;;;;;;14.63;13.23;;;10.80;99.90;;;;;;4996564;28;20041;-83
2024/02/11 01:26:06;;;;;;;13.80;12.40;;;10.80;99.90;;;;;;4978997;28;20114;-82
2024/02/11 01:28:31;;;;;;;13.15;11.82;;;10.80;99.90;;;;;;4977919;28;20104;-83
2024/02/11 01:30:57;;;;;;;15.35;13.45;;;10.80;99.90;;;;;;4962977;28;20030;-85
2024/02/11 01:33:23;;;;;;;13.93;12.27;;;10.80;99.90;;;;;;4979750;28;20031;-85
2024/02/11 01:35:49;;;;;;;15.07;13.23;;;10.80;99.90;;;;;;4995226;28;20472;-83
2024/02/11 01:38:15;;;;;;;14.75;12.60;;;10.80;99.90;;;;;;4979709;28;20100;-83
2024/02/11 01:40:41;;;;;;;12.60;11.32;;;10.70;99.90;;;;;;4979600;28;20466;-84
2024/02/11 01:43:09;;;;;;;13.38;11.45;;;10.70;99.90;;;;;;4995565;28;20115;-84
2024/02/11 01:45:38;;;;;;;13.73;12.32;;;10.80;99.90;;;;;;4979560;28;20045;-83
2024/02/11 01:48:05;;;;;;;13.60;11.98;;;10.80;99.90;;;;;;4996747;28;20474;-83
2024/02/11 01:50:33;;;;;;;13.30;11.90;;;10.70;99.90;;;;;;4979428;28;20038;-84
2024/02/11 01:53:00;;;;;;;13.30;12.00;;;10.80;99.90;;;;;;4979125;28;20023;-84
2024/02/11 01:55:26;;;;;;;13.05;11.77;;;10.80;99.90;;;;;;4979174;28;20030;-83
2024/02/11 01:57:55;;;;;;;11.88;10.68;;;10.80;99.90;;;;;;4979125;28;20053;-81
2024/02/11 02:00:22;;;;;;;13.90;11.85;;;10.80;99.90;;;;;;4996580;28;20035;-83
2024/02/11 02:02:51;;;;;;;13.27;11.98;;;10.80;99.90;;;;;;4996716;28;20030;-83
2024/02/11 02:05:17;;;;;;;12.70;11.40;;;10.80;99.90;;;;;;4996394;28;20026;-83
2024/02/11 02:07:43;;;;;;;11.93;10.82;;;10.80;99.90;;;;;;4978859;28;20046;-83
2024/02/11 02:10:09;;;;;;;11.30;10.15;;;10.80;99.90;;;;;;4978643;28;20113;-82
2024/02/11 02:12:39;;;;;;;12.77;11.57;;;10.90;99.90;;;;;;4962959;28;20034;-84
2024/02/11 02:15:07;;;;;;;11.68;10.57;;;10.90;99.90;;;;;;4978952;28;20022;-83
2024/02/11 02:17:33;;;;;;;11.95;10.75;;;10.90;99.90;;;;;;4978698;28;20022;-83
2024/02/11 02:19:58;;;;;;;12.38;11.18;;;10.90;99.90;;;;;;4962574;28;20081;-83
2024/02/11 02:22:24;;;;;;;12.63;11.32;;;10.90;99.90;;;;;;4979259;28;20030;-83
2024/02/11 02:24:50;;;;;;;13.20;11.90;;;10.90;99.90;;;;;;4996395;28;20054;-83
2024/02/11 02:27:16;;;;;;;12.32;11.13;;;10.80;99.90;;;;;;4984907;28;20529;-84
2024/02/11 02:29:44;;;;;;;13.43;12.10;;;10.80;99.90;;;;;;4981842;28;20026;-83
2024/02/11 02:32:10;;;;;;;12.85;11.55;;;10.80;99.90;;;;;;4979513;28;20037;-83
2024/02/11 02:34:37;;;;;;;13.10;11.75;;;10.70;99.90;;;;;;4995561;28;20029;-83
2024/02/11 02:37:03;;;;;;;14.43;13.02;;;10.80;99.90;;;;;;4995631;28;20165;-83
2024/02/11 02:39:29;;;;;;;12.95;11.65;;;10.80;99.90;;;;;;4978927;28;20125;-84
2024/02/11 02:41:55;;;;;;;13.43;12.02;;;10.70;99.90;;;;;;4997925;28;20494;-83
2024/02/11 02:44:20;;;;;;;13.68;12.27;;;10.70;99.90;;;;;;5019384;28;20038;-85
2024/02/11 02:46:46;;;;;;;14.23;12.40;;;10.60;99.90;;;;;;5002857;28;20086;-83
2024/02/11 02:49:12;;;;;;;13.93;12.45;;;10.70;99.90;;;;;;5019074;28;20034;-81
2024/02/11 02:51:39;;;;;;;13.52;12.23;;;10.60;99.90;;;;;;4984984;28;20057;-83
2024/02/11 02:54:05;;;;;;;13.75;12.40;;;10.70;99.90;;;;;;4995364;28;20026;-83
2024/02/11 02:56:34;;;;;;;12.68;11.38;;;10.70;99.90;;;;;;4978477;28;20034;-84
2024/02/11 02:59:05;;;;;;;13.13;11.93;;;10.70;99.90;;;;;;4994244;28;20038;-83
2024/02/11 03:01:31;;;;;;;;;;;10.70;99.90;;;;;;4978520;28;20492;-82
2024/02/11 03:04:00;;;;;;;14.48;12.27;;;10.70;99.90;;;;;;4995687;28;20000;-83
2024/02/11 03:06:26;;;;;;;12.50;11.30;;;10.60;99.90;;;;;;4977389;28;20042;-83
2024/02/11 03:08:51;;;;;;;13.32;11.93;;;10.70;99.90;;;;;;4978546;28;20081;-83
2024/02/11 03:11:17;;;;;;;13.32;11.77;;;10.70;99.90;;;;;;4978150;28;20026;-83
2024/02/11 03:13:43;;;;;;;12.70;11.50;;;10.70;99.90;;;;;;4994485;28;20030;-83
2024/02/11 03:16:10;;;;;;;12.35;11.15;;;10.70;99.90;;;;;;4962713;28;20102;-83
2024/02/11 03:18:37;;;;;;;12.63;11.40;;;10.70;99.90;;;;;;4979224;28;20034;-84
2024/02/11 03:21:02;;;;;;;12.77;11.57;;;10.70;99.90;;;;;;4997132;28;20470;-83
2024/02/11 03:23:28;;;;;;;13.93;12.52;;;10.70;99.90;;;;;;4983181;28;20037;-83
2024/02/11 03:25:54;;;;;;;12.60;11.40;;;10.80;99.90;;;;;;5008074;28;20058;-83
2024/02/11 03:28:19;;;;;;;12.68;11.48;;;10.80;99.90;;;;;;4995083;28;20102;-83
2024/02/11 03:30:45;;;;;;;11.68;10.48;;;10.80;99.90;;;;;;4996074;28;20037;-83
2024/02/11 03:33:11;;;;;;;12.48;11.18;;;10.80;99.90;;;;;;5013822;28;20039;-83
2024/02/11 03:35:36;;;;;;;13.43;12.13;;;10.80;99.90;;;;;;4992268;28;20121;-83
2024/02/11 03:38:02;;;;;;;12.43;11.23;;;10.90;99.90;;;;;;5009578;28;20053;-84
2024/02/11 03:40:31;;;;;;;12.57;11.38;;;10.90;99.90;;;;;;4983830;28;20031;-82
2024/02/11 03:42:57;;;;;;;12.55;11.30;;;10.90;99.90;;;;;;4994624;28;20037;-81
2024/02/11 03:45:22;;;;;;;13.15;11.85;;;11.00;99.90;;;;;;4982262;28;20026;-83
2024/02/11 03:47:48;;;;;;;14.23;11.23;;;11.00;99.90;;;;;;4979428;28;20514;-83
2024/02/11 03:50:14;;;;;;;12.13;10.93;;;10.90;99.90;;;;;;4978336;28;20039;-83
2024/02/11 03:52:40;;;;;;;14.32;10.90;;;10.90;99.90;;;;;;4979311;28;20386;-83
2024/02/11 03:55:06;;;;;;;12.45;11.25;;;10.90;99.90;;;;;;4979838;28;20136;-83
2024/02/11 03:57:32;;;;;;;13.25;12.02;;;10.90;99.90;;;;;;4978596;28;20022;-83
2024/02/11 03:59:58;;;;;;;13.43;12.02;;;10.80;99.90;;;;;;4994233;28;20042;-84
2024/02/11 04:02:24;;;;;;;12.63;11.43;;;10.80;99.90;;;;;;4962560;28;20035;-83
2024/02/11 04:04:49;;;;;;;14.30;11.95;;;10.80;99.90;;;;;;4981590;28;20034;-83
2024/02/11 04:07:20;;;;;;;12.77;11.48;;;10.70;99.90;;;;;;4991407;28;20062;-83
2024/02/11 04:09:46;;;;;;;13.85;12.45;;;10.70;99.90;;;;;;4993664;28;20050;-83
2024/02/11 04:12:12;;;;;;;12.85;11.55;;;10.70;99.90;;;;;;4979398;28;20030;-84
2024/02/11 04:14:40;;;;;;;13.05;11.63;;;10.60;99.90;;;;;;4968443;28;20023;-83
2024/02/11 04:17:12;;;;;;;13.85;11.27;;;10.60;99.90;;;;;;4967029;28;20364;-83
2024/02/11 04:19:39;;;;;;;13.88;11.77;;;10.60;99.90;;;;;;4968728;28;20035;-84
2024/02/11 04:22:06;;;;;;;12.30;11.05;;;10.60;99.90;;;;;;4960863;28;20035;-84
2024/02/11 04:24:31;;;;;;;12.05;10.73;;;10.60;99.90;;;;;;4958187;28;20118;-84
2024/02/11 04:27:00;;;;;;;12.85;11.55;;;10.60;99.90;;;;;;4973945;28;20113;-83
2024/02/11 04:29:25;;;;;;;13.70;12.30;;;10.70;99.90;;;;;;4958283;28;20035;-84
2024/02/11 04:31:51;;;;;;;13.77;12.05;;;10.70;99.90;;;;;;4957183;28;20121;-84
2024/02/11 04:34:21;;;;;;;12.60;11.30;;;10.70;99.90;;;;;;4957656;28;20137;-84
2024/02/11 04:36:48;;;;;;;11.70;10.50;;;10.70;99.90;;;;;;4958150;28;20035;-84
2024/02/11 04:39:15;;;;;;;12.75;11.45;;;10.70;99.90;;;;;;4974917;28;20290;-84
2024/02/11 04:41:41;;;;;;;12.23;11.02;;;10.70;99.90;;;;;;4973211;28;20082;-83
2024/02/11 04:44:06;;;;;;;12.63;11.43;;;10.70;99.90;;;;;;4973195;28;20356;-84
2024/02/11 04:46:33;;;;;;;12.65;11.43;;;10.70;99.90;;;;;;4957336;28;20530;-83
2024/02/11 04:48:59;;;;;;;13.63;12.23;;;10.70;99.90;;;;;;4973064;28;20470;-85
2024/02/11 04:51:28;;;;;;;12.45;11.15;;;10.70;99.90;;;;;;4973077;28;20027;-83
2024/02/11 04:53:57;;;;;;;12.52;11.25;;;10.70;99.90;;;;;;4973221;28;20031;-83
2024/02/11 04:56:30;;;;;;;12.82;11.63;;;10.70;99.90;;;;;;4957244;28;20118;-84
2024/02/11 04:59:01;;;;;;;12.98;11.57;;;10.70;99.90;;;;;;4957542;28;20030;-83
2024/02/11 05:01:27;;;;;;;12.77;11.52;;;10.70;99.90;;;;;;4973333;28;20324;-83
2024/02/11 05:03:53;;;;;;;13.57;12.27;;;10.80;99.90;;;;;;4973120;28;20038;-82
2024/02/11 05:06:23;;;;;;;13.30;11.93;;;10.70;99.90;;;;;;4974789;28;20055;-84
2024/02/11 05:08:55;;;;;;;13.43;11.57;;;10.80;99.90;;;;;;4992676;28;20182;-83
2024/02/11 05:11:21;;;;;;;12.85;11.55;;;10.80;99.90;;;;;;4976573;28;20019;-84
2024/02/11 05:13:47;;;;;;;13.85;12.45;;;10.80;99.90;;;;;;4975999;28;20033;-84
2024/02/11 05:16:15;;;;;;;14.05;12.48;;;10.80;99.90;;;;;;4992427;28;20029;-84
2024/02/11 05:18:42;;;;;;;12.88;11.68;;;10.80;99.90;;;;;;4976221;28;20474;-84
2024/02/11 05:21:09;;;;;;;13.40;12.10;;;10.90;99.90;;;;;;4976144;28;20026;-83
2024/02/11 05:23:36;;;;;;;12.75;11.45;;;10.90;99.90;;;;;;4976093;28;20033;-84
2024/02/11 05:26:05;;;;;;;13.00;11.70;;;10.90;99.90;;;;;;4976633;28;20026;-83
2024/02/11 05:28:34;;;;;;;13.27;11.88;;;10.90;99.90;;;;;;4976090;28;20035;-83
2024/02/11 05:31:01;;;;;;;12.90;11.50;;;10.90;99.90;;;;;;4977912;28;20037;-84
2024/02/11 05:33:27;;;;;;;12.45;11.32;;;10.90;99.90;;;;;;4997463;28;20069;-83
2024/02/11 05:35:53;;;;;;;12.75;11.50;;;11.00;99.90;;;;;;4995516;28;20022;-83
2024/02/11 05:38:19;;;;;;;13.88;12.48;;;10.90;99.90;;;;;;4963839;28;20030;-84
2024/02/11 05:40:48;;;;;;;13.88;12.25;;;11.00;99.90;;;;;;4996313;28;20030;-83
2024/02/11 05:43:16;;;;;;;13.65;12.25;;;11.00;99.90;;;;;;4980719;28;20067;-84
2024/02/11 05:45:44;;;;;;;13.75;12.38;;;11.00;99.90;;;;;;4981307;28;20038;-83
2024/02/11 05:48:12;;;;;;;13.52;12.20;;;11.00;99.90;;;;;;4991483;28;20025;-83
2024/02/11 05:50:39;;;;;;;14.52;13.02;;;11.00;99.90;;;;;;5003857;28;20022;-85
2024/02/11 05:53:05;;;;;;;13.88;12.57;;;11.00;99.90;;;;;;5004161;28;20015;-84
2024/02/11 05:55:32;;;;;;;13.80;12.43;;;11.00;99.90;;;;;;5019925;28;20018;-84
2024/02/11 05:58:00;;;;;;;12.77;11.35;;;11.00;99.90;;;;;;4994130;28;20351;-83
2024/02/11 06:00:31;;;;;;;12.88;11.57;;;11.00;99.90;;;;;;4980277;28;20027;-83
2024/02/11 06:02:57;;;;;;;12.50;11.10;;;11.10;99.90;;;;;;4995921;28;20027;-83
2024/02/11 06:05:25;;;;;;;12.55;11.35;;;11.10;99.90;;;;;;4996934;28;20118;-84
2024/02/11 06:07:56;;;;;;;12.88;11.57;;;11.10;99.90;;;;;;4995119;28;20057;-83
2024/02/11 06:10:26;;;;;;;14.35;12.07;;;11.10;99.90;;;;;;4996562;28;20049;-83
2024/02/11 06:12:52;;;;;;;15.95;12.05;;;11.10;99.90;;;;;;4979053;28;20030;-83
2024/02/11 06:15:21;;;;;;;12.57;11.32;;;11.10;99.90;;;;;;4995382;28;20026;-83
2024/02/11 06:17:48;;;;;;;14.00;11.93;;;11.10;99.90;;;;;;4996395;28;20034;-83
2024/02/11 06:20:15;;;;;;;12.68;11.38;;;11.10;99.90;;;;;;4979086;28;20390;-84
2024/02/11 06:22:44;;;;;;;13.05;11.75;;;11.10;99.90;;;;;;4996314;28;20026;-83
2024/02/11 06:25:13;;;;;;;12.77;11.48;;;11.10;99.90;;;;;;4979431;28;20103;-82
2024/02/11 06:27:40;;;;;;;12.27;10.98;;;11.10;99.90;;;;;;4994940;28;20224;-83
2024/02/11 06:30:13;;;;;;;13.95;12.48;;;11.20;99.90;;;;;;4962196;28;20416;-82
2024/02/11 06:32:55;;;;;;;13.85;12.32;;;11.20;99.90;;;;;;4996016;28;20080;-83
2024/02/11 06:35:21;;;;;;;13.98;12.48;;;11.20;99.90;;;;;;4978588;28;20031;-83
2024/02/11 06:37:49;;;;;;;13.05;11.55;;;11.20;99.90;;;;;;4994985;28;20064;-84
2024/02/11 06:40:16;;;;;;;10.75;9.63;;;11.20;99.90;;;;;;4978402;28;20037;-84
2024/02/11 06:42:43;;;;;;;9.23;8.00;;;11.20;99.90;;;;;;4978099;28;20026;-83
2024/02/11 06:45:12;;;;;;;7.13;6.43;;;11.10;99.90;;;;;;4996096;28;20027;-83
2024/02/11 06:47:38;;;;;;;5.22;4.60;;;11.10;99.90;;;;;;4962666;28;20029;-83
2024/02/11 06:50:05;;;;;;;5.38;4.78;;;11.00;99.90;;;;;;4962441;28;20492;-83
2024/02/11 06:52:31;;;;;;;5.50;4.88;;;10.90;99.90;;;;;;4962447;28;20084;-84
2024/02/11 06:54:57;;;;;;;5.28;4.70;;;10.80;99.90;;;;;;4962328;28;20418;-84
2024/02/11 06:57:22;;;;;;;6.22;5.63;;;10.80;99.90;;;;;;4995686;28;20054;-84
2024/02/11 06:59:49;;;;;;;6.38;5.20;;;10.80;99.90;;;;;;4962113;28;20124;-84
2024/02/11 07:02:15;;;;;;;6.40;5.70;;;10.80;99.90;;;;;;4996308;28;20026;-84
2024/02/11 07:04:41;;;;;;;6.65;5.55;;;10.80;99.90;;;;;;4978595;28;20038;-84
2024/02/11 07:07:09;;;;;;;6.03;5.43;;;10.80;99.90;;;;;;4958977;28;20051;-84
2024/02/11 07:09:39;;;;;;;6.80;6.10;;;10.70;99.90;;;;;;4975149;28;20035;-85
2024/02/11 07:12:06;;;;;;;9.68;8.68;;;10.70;99.90;;;;;;4977182;28;20297;-85
2024/02/11 07:14:32;;;;;;;10.15;9.05;;;10.70;99.90;;;;;;4975470;28;20411;-85
2024/02/11 07:17:00;;;;;;;11.90;10.48;;;10.60;99.90;;;;;;4959496;28;20180;-84
2024/02/11 07:19:28;;;;;;;12.32;11.02;;;10.60;99.90;;;;;;4961556;28;20062;-84
2024/02/11 07:21:53;;;;;;;11.57;10.30;;;10.50;99.90;;;;;;4975192;28;20046;-84
2024/02/11 07:24:22;;;;;;;14.60;11.02;;;10.50;99.90;;;;;;4999873;28;20026;-84
2024/02/11 07:26:48;;;;;;;13.95;11.15;;;10.40;99.90;;;;;;4998750;28;20022;-84
2024/02/11 07:29:14;;;;;;;13.60;11.05;;;10.30;99.90;;;;;;4998315;28;20047;-83
2024/02/11 07:31:41;;;;;;;15.50;11.63;;;10.30;99.90;;;;;;4963755;28;20031;-84
2024/02/11 07:34:07;;;;;;;13.90;10.75;;;10.30;99.90;;;;;;4976400;28;20490;-84
2024/02/11 07:36:32;;;;;;;15.57;11.77;;;10.30;99.90;;;;;;4958520;28;20031;-83
2024/02/11 07:38:58;;;;;;;14.77;11.95;;;10.30;99.90;;;;;;4974217;28;20030;-84
2024/02/11 07:41:24;;;;;;;17.90;12.27;;;10.30;99.90;;;;;;4958182;28;20049;-83
2024/02/11 07:43:52;;;;;;;17.20;11.43;;;10.20;99.90;;;;;;4958220;28;20085;-84
2024/02/11 07:46:19;;;;;;;14.63;11.10;;;10.30;99.90;;;;;;4975246;28;20026;-85
2024/02/11 07:48:45;;;;;;;18.02;10.45;;;10.20;99.90;;;;;;4958341;28;20039;-83
2024/02/11 07:51:15;;;;;;;15.80;10.45;;;10.20;99.90;;;;;;4975088;28;20092;-83
2024/02/11 07:53:41;;;;;;;14.70;9.95;;;10.20;99.90;;;;;;4973907;28;20026;-84
2024/02/11 07:56:14;;;;;;;13.85;9.75;;;10.10;99.90;;;;;;4974086;28;20533;-84
2024/02/11 07:58:43;;;;;;;14.30;9.75;;;10.10;99.90;;;;;;4941903;28;20031;-84
2024/02/11 08:01:09;;;;;;;12.65;9.07;;;10.10;99.90;;;;;;4974868;28;20658;-84
2024/02/11 08:03:35;;;;;;;15.13;9.27;;;10.10;99.90;;;;;;4974110;28;20022;-83
2024/02/11 08:06:01;;;;;;;12.30;7.72;;;10.00;99.90;;;;;;4973933;28;20026;-84
2024/02/11 08:08:27;;;;;;;14.57;7.95;;;10.00;99.90;;;;;;4941583;28;20058;-83
2024/02/11 08:10:55;;;;;;;11.52;7.32;;;9.90;99.90;;;;;;4973872;28;20108;-83
2024/02/11 08:13:21;;;;;;;12.98;7.50;;;9.90;99.90;;;;;;4973980;28;20478;-83
2024/02/11 08:15:47;;;;;;;10.23;6.60;;;9.90;99.90;;;;;;4941943;28;20107;-84
2024/02/11 08:18:13;;;;;;;12.98;7.93;;;9.80;99.90;;;;;;4957695;28;20031;-83
2024/02/11 08:20:39;;;;;;;13.38;7.88;;;9.80;99.90;;;;;;4957816;28;20031;-85
2024/02/11 08:23:05;;;;;;;12.25;7.45;;;9.90;99.90;;;;;;4973694;28;20490;-84
2024/02/11 08:25:31;;;;;;;12.98;7.03;;;9.90;99.90;;;;;;4957953;28;20449;-84
2024/02/11 08:27:57;;;;;;;13.95;7.25;;;9.90;99.90;;;;;;4973634;28;20037;-84
2024/02/11 08:30:24;;;;;;;12.70;7.40;;;9.90;99.90;;;;;;4942082;28;20031;-84
2024/02/11 08:32:50;;;;;;;10.50;6.82;;;10.00;99.90;;;;;;4973918;28;20391;-84
2024/02/11 08:35:18;;;;;;;11.48;7.78;;;10.00;99.90;;;;;;4957981;28;20031;-84
2024/02/11 08:37:44;;;;;;;13.75;8.30;;;10.00;99.90;;;;;;4973402;28;20073;-82
2024/02/11 08:40:13;;;;;;;13.30;8.95;;;10.00;99.90;;;;;;4941023;28;20042;-83
2024/02/11 08:42:41;;;;;;;16.67;9.00;;;10.10;99.90;;;;;;4958637;28;20562;-84
2024/02/11 08:45:08;;;;;;;13.88;8.90;;;10.10;99.90;;;;;;4958178;28;20498;-83
2024/02/11 08:47:34;;;;;;;13.02;9.60;;;10.10;99.90;;;;;;4958315;28;20030;-83
2024/02/11 08:50:00;;;;;;;12.68;9.23;;;10.10;99.90;;;;;;4975326;28;20559;-83
2024/02/11 08:52:26;;;;;;;14.95;10.75;;;10.10;99.90;;;;;;4985473;28;20018;-83
2024/02/11 08:54:52;;;;;;;18.70;11.38;;;10.10;99.90;;;;;;4998006;28;20039;-84
2024/02/11 08:57:26;;;;;;;16.65;11.52;;;10.10;99.90;;;;;;4998065;28;20197;-83
2024/02/11 08:59:52;;;;;;;13.40;10.57;;;10.20;99.90;;;;;;4982283;28;20073;-84
2024/02/11 09:02:18;;;;;;;19.80;13.07;;;10.20;99.90;;;;;;4971330;28;20290;-84
2024/02/11 09:04:44;;;;;;;20.65;12.93;;;10.20;99.90;;;;;;4975306;28;20053;-83
2024/02/11 09:07:10;;;;;;;18.30;12.13;;;10.20;99.90;;;;;;4981488;28;20046;-82
2024/02/11 09:09:36;;;;;;;20.90;13.50;;;10.20;99.90;;;;;;4980696;28;20390;-84
2024/02/11 09:12:03;;;;;;;16.75;13.00;;;10.20;99.90;;;;;;4964607;28;20038;-85
2024/02/11 09:14:29;;;;;;;16.90;11.93;;;10.20;99.90;;;;;;4980185;28;20061;-84
2024/02/11 09:16:56;;;;;;;18.80;12.45;;;10.20;99.90;;;;;;4980194;28;20466;-84
2024/02/11 09:19:27;;;;;;;18.85;12.40;;;10.20;99.90;;;;;;4979922;28;20030;-84
2024/02/11 09:21:59;;;;;;;18.17;12.68;;;10.20;99.90;;;;;;4997621;28;20034;-83
2024/02/11 09:24:25;;;;;;;18.63;11.65;;;10.30;99.90;;;;;;4980072;28;20023;-83
2024/02/11 09:26:51;;;;;;;19.80;11.80;;;10.30;99.90;;;;;;4996247;28;20030;-83
2024/02/11 09:29:17;;;;;;;13.45;10.60;;;10.30;99.90;;;;;;4997307;28;20035;-83
2024/02/11 09:31:44;;;;;;;17.85;11.40;;;10.30;99.90;;;;;;4997703;28;20041;-83
2024/02/11 09:34:11;;;;;;;17.38;10.60;;;10.30;99.90;;;;;;4980124;28;20402;-83
2024/02/11 09:36:39;;;;;;;16.13;11.18;;;10.40;99.90;;;;;;4996276;28;20034;-83
2024/02/11 09:39:05;;;;;;;14.73;10.48;;;10.40;99.90;;;;;;4979430;28;20023;-83
2024/02/11 09:41:32;;;;;;;15.20;10.82;;;10.40;99.90;;;;;;4979813;28;20045;-84
2024/02/11 09:44:02;;;;;;;13.27;10.13;;;10.40;99.90;;;;;;4963811;28;20030;-83
2024/02/11 09:46:37;;;;;;;17.40;10.18;;;10.50;99.90;;;;;;4995973;28;20030;-84
2024/02/11 09:49:14;;;;;;;18.13;10.73;;;10.50;99.90;;;;;;4997494;28;20092;-84
2024/02/11 09:51:41;;;;;;;17.23;11.32;;;10.60;99.90;;;;;;4979880;28;20539;-83
2024/02/11 09:54:07;;;;;;;14.38;10.25;;;10.60;99.90;;;;;;4996213;28;20026;-84
2024/02/11 09:56:33;;;;;;;17.50;11.27;;;10.60;99.90;;;;;;4979869;28;20482;-83
2024/02/11 09:58:59;;;;;;;14.82;11.23;;;10.60;99.90;;;;;;4979699;28;20037;-84
2024/02/11 10:01:27;;;;;;;19.05;11.90;;;10.60;99.90;;;;;;4963516;28;20582;-83
2024/02/11 10:03:57;;;;;;;18.08;11.93;;;10.70;99.90;;;;;;4979650;28;20027;-83
2024/02/11 10:06:37;;;;;;;20.98;12.23;;;10.70;99.90;;;;;;4979418;28;20080;-84
2024/02/11 10:09:12;;;;;;;19.50;12.27;;;10.70;99.90;;;;;;4976131;28;20109;-84
2024/02/11 10:11:39;;;;;;;15.15;10.52;;;10.80;99.90;;;;;;4977242;28;20019;-83
2024/02/11 10:14:11;;;;;;;18.83;12.20;;;10.80;99.90;;;;;;4975818;28;20387;-83
2024/02/11 10:16:37;;;;;;;18.77;12.38;;;10.90;99.90;;;;;;4961060;28;20031;-84
2024/02/11 10:19:05;;;;;;;19.63;12.50;;;10.90;99.90;;;;;;4976121;28;20054;-84
2024/02/11 10:21:31;;;;;;;19.70;12.32;;;10.90;99.90;;;;;;4961330;28;20050;-84
2024/02/11 10:23:57;;;;;;;21.38;13.77;;;10.90;99.90;;;;;;4962970;28;20074;-83
2024/02/11 10:26:22;;;;;;;22.05;14.00;;;10.90;99.90;;;;;;4984209;28;20035;-84
2024/02/11 10:28:48;;;;;;;22.90;14.10;;;10.80;99.90;;;;;;4984089;28;20034;-83
2024/02/11 10:31:14;;;;;;;20.95;15.05;;;10.80;99.90;;;;;;4982819;28;20031;-83
2024/02/11 10:33:40;;;;;;;19.85;14.80;;;10.90;99.90;;;;;;4980958;28;20031;-83
2024/02/11 10:36:07;;;;;;;23.75;15.32;;;10.90;99.90;;;;;;4977077;28;20383;-84
2024/02/11 10:38:33;;;;;;;23.05;14.40;;;10.90;99.90;;;;;;4975699;28;20500;-85
2024/02/11 10:41:03;;;;;;;23.92;14.98;;;10.90;99.90;;;;;;4959838;28;20497;-83
2024/02/11 10:43:38;;;;;;;19.92;13.77;;;10.90;99.90;;;;;;4976554;28;20170;-83
2024/02/11 10:46:06;;;;;;;17.48;12.38;;;10.80;99.90;;;;;;4975172;28;20494;-83
2024/02/11 10:48:32;;;;;;;22.60;13.38;;;10.80;99.90;;;;;;4975040;28;20043;-83
2024/02/11 10:51:34;;;;;;;17.80;11.80;;;10.80;99.90;;;;;;4959181;28;20041;-82
2024/02/11 10:54:02;;;;;;;16.98;10.07;;;10.80;99.90;;;;;;4925965;28;20372;-84
2024/02/11 10:56:29;;;;;;;18.85;10.60;;;10.80;99.90;;;;;;4975243;28;20027;-85
2024/02/11 10:59:27;;;;;;;17.98;10.60;;;10.80;99.90;;;;;;4975085;28;20072;-84
2024/02/11 11:01:55;;;;;;;17.23;9.80;;;10.80;99.90;;;;;;4974832;28;20030;-84
2024/02/11 11:04:23;;;;;;;17.08;10.82;;;10.80;99.90;;;;;;4976236;28;20094;-84
2024/02/11 11:06:53;;;;;;;15.70;9.48;;;10.80;99.90;;;;;;4959148;28;20127;-84
2024/02/11 11:09:20;;;;;;;15.55;9.35;;;10.80;99.90;;;;;;4943095;28;20053;-83
2024/02/11 11:11:46;;;;;;;19.58;9.35;;;10.80;99.90;;;;;;4959017;28;20035;-83
2024/02/11 11:14:19;;;;;;;15.32;8.57;;;10.80;99.90;;;;;;4958684;28;20034;-84
2024/02/11 11:16:46;;;;;;;18.40;9.38;;;10.90;99.90;;;;;;4975071;28;20033;-83
2024/02/11 11:19:13;;;;;;;13.90;8.52;;;10.90;99.90;;;;;;4977691;28;20458;-83
2024/02/11 11:21:50;;;;;;;16.48;9.07;;;10.90;99.90;;;;;;4958581;28;20069;-84
2024/02/11 11:24:18;;;;;;;18.08;8.88;;;10.90;99.90;;;;;;4958571;28;20030;-84
2024/02/11 11:26:57;;;;;;;14.75;9.32;;;11.00;99.90;;;;;;4958204;28;20027;-84
2024/02/11 11:29:32;;;;;;;16.15;8.77;;;10.90;99.90;;;;;;4957978;28;20104;-84
2024/02/11 11:32:01;;;;;;;14.60;8.48;;;11.00;99.90;;;;;;4975764;28;20030;-84
2024/02/11 11:34:28;;;;;;;13.48;8.10;;;11.00;99.90;;;;;;4974565;28;20031;-84
2024/02/11 11:36:54;;;;;;;16.00;8.60;;;11.00;99.90;;;;;;4974575;28;20053;-83
2024/02/11 11:39:20;;;;;;;14.07;7.43;;;11.00;99.90;;;;;;4975968;28;20114;-84
2024/02/11 11:41:48;;;;;;;17.58;8.65;;;11.00;99.90;;;;;;4975715;28;20042;-85
2024/02/11 11:44:23;;;;;;;16.42;8.57;;;11.00;99.90;;;;;;4975830;28;20455;-83
2024/02/11 11:46:50;;;;;;;17.25;8.32;;;11.00;99.90;;;;;;4958403;28;20033;-86
2024/02/11 11:49:16;;;;;;;13.55;7.80;;;11.00;99.90;;;;;;4974657;28;20042;-85
2024/02/11 11:51:42;;;;;;;17.75;8.60;;;11.00;99.90;;;;;;4958948;28;20089;-84
2024/02/11 11:54:08;;;;;;;14.00;8.63;;;11.00;99.90;;;;;;4975077;28;20030;-84
2024/02/11 11:56:33;;;;;;;16.77;8.65;;;11.00;99.90;;;;;;4959847;28;20371;-85
2024/02/11 11:59:04;;;;;;;16.65;8.18;;;11.10;99.90;;;;;;4967007;28;20596;-85
2024/02/11 12:01:30;;;;;;;16.98;7.47;;;11.10;99.90;;;;;;4990141;28;20165;-85
2024/02/11 12:03:56;;;;;;;12.40;7.93;;;11.10;99.90;;;;;;4998808;28;20011;-84
2024/02/11 12:06:22;;;;;;;14.98;7.43;;;11.10;99.90;;;;;;4998665;28;20019;-84
2024/02/11 12:08:49;;;;;;;13.95;7.13;;;11.10;99.90;;;;;;4963975;28;20158;-84
2024/02/11 12:11:14;;;;;;;14.10;7.57;;;11.10;99.90;;;;;;4974427;28;20041;-84
2024/02/11 12:13:41;;;;;;;13.80;7.40;;;11.10;99.90;;;;;;4958026;28;20467;-83
2024/02/11 12:16:13;;;;;;;15.02;7.32;;;11.10;99.90;;;;;;4973526;28;20533;-85
2024/02/11 12:18:40;;;;;;;14.00;6.82;;;11.10;99.90;;;;;;4973917;28;20038;-85
2024/02/11 12:21:10;;;;;;;17.55;7.65;;;11.10;99.90;;;;;;4974026;28;20038;-85
2024/02/11 12:23:36;;;;;;;14.65;7.03;;;11.10;99.90;;;;;;4958313;28;20030;-85
2024/02/11 12:26:06;;;;;;;11.45;6.70;;;11.20;99.90;;;;;;4974938;28;20029;-85
2024/02/11 12:28:35;;;;;;;14.07;7.28;;;11.20;99.90;;;;;;4958046;28;20031;-85
2024/02/11 12:31:11;;;;;;;16.10;7.53;;;11.30;99.90;;;;;;4973473;28;20053;-84